Time;durP1;ratioP1;P1;durP2;ratioP2;P2;SDS_P1;SDS_P2;PMS_P1;PMS_P2;Temp;Humidity;BMP_temperature;BMP_pressure;BME280_temperature;BME280_humidity;BME280_pressure;Samples;Min_cycle;Max_cycle;Signal;HPM_P1;HPM_P2
2022/10/08 00:00:27;;;;;;;;;;;;;;;14.37;55.08;100588.34;5005670;28;19929;-72
2022/10/08 00:02:52;;;;;;;;;;;;;;;14.41;55.01;100593.34;5003445;28;20195;-72
2022/10/08 00:05:18;;;;;;;;;;;;;;;14.53;54.82;100589.38;5016603;28;19925;-72
2022/10/08 00:07:44;;;;;;;;;;;;;;;14.44;54.93;100585.88;5001206;28;19917;-70
2022/10/08 00:10:09;;;;;;;;;;;;;;;14.37;55.39;100575.03;5006625;28;19955;-72
2022/10/08 00:12:35;;;;;;;;;;;;;;;14.07;55.93;100578.34;5001512;28;19940;-72
2022/10/08 00:15:00;;;;;;;;;;;;;;;14.28;55.45;100577.84;5017460;28;19921;-72
2022/10/08 00:17:25;;;;;;;;;;;;;;;14.38;54.59;100583.84;5003256;28;19925;-70
2022/10/08 00:19:53;;;;;;;;;;;;;;;14.38;54.81;100583.84;5003882;28;19929;-72
2022/10/08 00:22:18;;;;;;;;;;;;;;;14.33;54.57;100581.69;5002762;28;19918;-70
2022/10/08 00:24:45;;;;;;;;;;;;;;;14.19;54.60;100577.00;5002199;28;20314;-69
2022/10/08 00:27:11;;;;;;;;;;;;;;;13.89;54.84;100575.81;5007087;28;19917;-71
2022/10/08 00:29:36;;;;;;;;;;;;;;;13.67;55.53;100571.09;5004502;28;20001;-73
2022/10/08 00:32:01;;;;;;;;;;;;;;;13.48;56.17;100568.66;5003511;28;20204;-71
2022/10/08 00:34:27;;;;;;;;;;;;;;;13.51;56.77;100566.53;5005554;28;19968;-72
2022/10/08 00:36:53;;;;;;;;;;;;;;;13.59;56.54;100571.06;5004119;28;19914;-72
2022/10/08 00:39:19;;;;;;;;;;;;;;;13.58;56.15;100567.56;5003519;28;19968;-72
2022/10/08 00:41:46;;;;;;;;;;;;;;;13.48;55.46;100566.00;5003405;28;19925;-71
2022/10/08 00:44:30;;;;;;;;;;;;;;;13.38;56.72;100561.66;5003643;28;19922;-74
2022/10/08 00:46:56;;;;;;;;;;;;;;;13.41;57.15;100561.31;5002007;28;19924;-72
2022/10/08 00:49:21;;;;;;;;;;;;;;;13.56;56.17;100564.25;5002545;28;19922;-74
2022/10/08 00:51:51;;;;;;;;;;;;;;;13.60;56.45;100557.59;5004307;28;19993;-72
2022/10/08 00:54:18;;;;;;;;;;;;;;;13.66;56.32;100556.13;5003347;28;19929;-72
2022/10/08 00:56:43;;;;;;;;;;;;;;;13.70;56.39;100555.63;5003319;28;19921;-72
2022/10/08 00:59:10;;;;;;;;;;;;;;;13.72;56.73;100558.97;5003014;28;19929;-72
2022/10/08 01:01:36;;;;;;;;;;;;;;;13.74;56.34;100543.66;5002820;28;19937;-72
2022/10/08 01:04:03;;;;;;;;;;;;;;;13.69;56.05;100543.31;5005191;28;20121;-72
2022/10/08 01:06:31;;;;;;;;;;;;;;;13.59;56.15;100539.13;5002750;28;20258;-71
2022/10/08 01:09:12;;;;;;;;;;;;;;;13.52;56.36;100540.75;5001398;28;19918;-74
2022/10/08 01:11:46;;;;;;;;;;;;;;;13.41;56.30;100533.91;5001597;28;19989;-69
2022/10/08 01:14:30;;;;;;;;;;;;;;;13.37;57.11;100533.38;5003488;28;19922;-70
2022/10/08 01:17:18;;;;;;;;;;;;;;;13.34;57.28;100531.03;5008225;28;20167;-72
2022/10/08 01:19:46;;;;;;;;;;;;;;;13.41;57.44;100523.25;4999784;28;19929;-71
2022/10/08 01:22:11;;;;;;;;;;;;;;;13.49;58.06;100525.94;5008460;28;19918;-74
2022/10/08 01:27:57;;;;;;;;;;;;;;;13.32;57.61;100525.06;5044856;28;20201;-73
2022/10/08 01:30:22;;;;;;;;;;;;;;;13.23;58.13;100525.19;5031899;28;19944;-73
2022/10/08 01:32:52;;;;;;;;;;;;;;;13.26;57.85;100520.38;5026547;28;19949;-71
2022/10/08 01:35:24;;;;;;;;;;;;;;;13.25;58.12;100520.53;5026159;28;19917;-71
2022/10/08 01:37:54;;;;;;;;;;;;;;;13.21;57.91;100514.69;5026440;28;19917;-71
2022/10/08 01:40:21;;;;;;;;;;;;;;;13.04;58.56;100511.09;5026251;28;19987;-71
2022/10/08 01:42:48;;;;;;;;;;;;;;;13.02;58.73;100522.91;5026224;28;19918;-73
2022/10/08 01:45:16;;;;;;;;;;;;;;;12.73;58.67;100521.41;5026045;28;19917;-71
2022/10/08 01:47:43;;;;;;;;;;;;;;;12.63;58.97;100519.84;5025980;28;19963;-73
2022/10/08 01:50:11;;;;;;;;;;;;;;;12.67;60.27;100523.88;5024698;28;20084;-73
2022/10/08 01:52:41;;;;;;;;;;;;;;;12.79;60.26;100515.47;5026098;28;19917;-73
2022/10/08 01:55:22;;;;;;;;;;;;;;;12.97;59.96;100519.88;5025432;28;19918;-73
2022/10/08 01:57:48;;;;;;;;;;;;;;;13.01;59.84;100514.09;5026375;28;19925;-73
2022/10/08 02:00:13;;;;;;;;;;;;;;;13.16;58.94;100522.28;5025982;28;20088;-70
2022/10/08 02:02:39;;;;;;;;;;;;;;;13.25;57.96;100521.38;5025861;28;19982;-73
2022/10/08 02:05:05;;;;;;;;;;;;;;;13.21;57.58;100524.50;5025803;28;20222;-71
2022/10/08 02:07:32;;;;;;;;;;;;;;;13.15;58.27;100525.94;5026053;28;19925;-73
2022/10/08 02:10:05;;;;;;;;;;;;;;;13.08;58.02;100525.75;5025707;28;19924;-73
2022/10/08 02:12:31;;;;;;;;;;;;;;;13.03;57.38;100537.84;5025627;28;19917;-73
2022/10/08 02:14:57;;;;;;;;;;;;;;;12.95;58.29;100527.19;5025811;28;19925;-71
2022/10/08 02:17:41;;;;;;;;;;;;;;;12.88;58.90;100523.50;5025626;28;19980;-71
2022/10/08 02:20:06;;;;;;;;;;;;;;;12.72;58.12;100525.06;5021524;28;19929;-71
2022/10/08 02:22:36;;;;;;;;;;;;;;;12.42;59.60;100523.66;5023240;28;19956;-71
2022/10/08 02:25:05;;;;;;;;;;;;;;;12.26;61.03;100523.53;5022729;28;19928;-73
2022/10/08 02:27:38;;;;;;;;;;;;;;;12.29;61.49;100522.41;5020385;28;19929;-71
2022/10/08 02:30:07;;;;;;;;;;;;;;;12.36;62.15;100518.13;5020653;28;19928;-71
2022/10/08 02:32:47;;;;;;;;;;;;;;;11.94;64.13;100520.63;5020908;28;19918;-71
2022/10/08 02:35:18;;;;;;;;;;;;;;;12.05;64.39;100510.59;5017829;28;19984;-73
2022/10/08 02:37:49;;;;;;;;;;;;;;;12.24;64.26;100511.41;5021730;28;19945;-71
2022/10/08 02:40:16;;;;;;;;;;;;;;;12.50;63.57;100514.94;5022418;28;20334;-73
2022/10/08 02:42:48;;;;;;;;;;;;;;;12.51;63.44;100513.13;5020948;28;19941;-71
2022/10/08 02:45:17;;;;;;;;;;;;;;;12.71;62.55;100517.25;5021134;28;19928;-73
2022/10/08 02:47:44;;;;;;;;;;;;;;;12.87;59.96;100516.50;5020243;28;19918;-74
2022/10/08 02:50:11;;;;;;;;;;;;;;;12.69;60.19;100522.72;5022033;28;19921;-73
2022/10/08 02:52:39;;;;;;;;;;;;;;;12.59;62.07;100518.50;5023427;28;19913;-71
2022/10/08 02:55:13;;;;;;;;;;;;;;;12.54;62.19;100516.31;5020862;28;19945;-72
2022/10/08 02:57:41;;;;;;;;;;;;;;;12.25;63.94;100513.91;5020427;28;20224;-74
2022/10/08 03:00:07;;;;;;;;;;;;;;;12.53;63.47;100514.63;5020163;28;20153;-73
2022/10/08 03:02:39;;;;;;;;;;;;;;;12.58;63.19;100515.00;5021038;28;19925;-73
2022/10/08 03:05:06;;;;;;;;;;;;;;;12.86;62.59;100514.84;5019726;28;20147;-71
2022/10/08 03:07:32;;;;;;;;;;;;;;;12.92;61.40;100515.03;5023786;28;19921;-73
2022/10/08 03:09:59;;;;;;;;;;;;;;;12.72;62.00;100514.44;5022566;28;19921;-71
2022/10/08 03:12:24;;;;;;;;;;;;;;;12.73;62.66;100507.28;5019793;28;20009;-71
2022/10/08 03:14:51;;;;;;;;;;;;;;;12.65;62.76;100513.38;5019850;28;19921;-71
2022/10/08 03:17:22;;;;;;;;;;;;;;;12.69;62.55;100517.41;5020969;28;20115;-71
2022/10/08 03:19:48;;;;;;;;;;;;;;;12.88;61.97;100511.03;5020500;28;20118;-73
2022/10/08 03:22:13;;;;;;;;;;;;;;;12.91;61.40;100502.75;5020028;28;19917;-74
2022/10/08 03:24:39;;;;;;;;;;;;;;;13.00;60.87;100506.28;5020342;28;19993;-73
2022/10/08 03:27:04;;;;;;;;;;;;;;;12.96;60.57;100511.06;5019526;28;19979;-73
2022/10/08 03:29:29;;;;;;;;;;;;;;;12.85;61.46;100511.34;5020604;28;19985;-73
2022/10/08 03:31:55;;;;;;;;;;;;;;;12.85;61.32;100511.34;5018496;28;19929;-73
2022/10/08 03:34:20;;;;;;;;;;;;;;;12.80;61.66;100511.00;5020428;28;19976;-73
2022/10/08 03:36:45;;;;;;;;;;;;;;;12.88;61.45;100504.88;5020093;28;19956;-73
2022/10/08 03:39:11;;;;;;;;;;;;;;;12.83;61.02;100504.53;5019147;28;19922;-73
2022/10/08 03:41:36;;;;;;;;;;;;;;;12.83;61.47;100502.69;5025123;28;19956;-71
2022/10/08 03:44:01;;;;;;;;;;;;;;;12.84;61.09;100493.72;5020434;28;19922;-73
2022/10/08 03:46:27;;;;;;;;;;;;;;;12.83;60.90;100491.22;5022597;28;19913;-71
2022/10/08 03:48:52;;;;;;;;;;;;;;;12.88;61.05;100491.59;5020502;28;19918;-71
2022/10/08 03:51:18;;;;;;;;;;;;;;;12.78;61.22;100487.22;5023406;28;20210;-71
2022/10/08 03:53:43;;;;;;;;;;;;;;;12.60;62.47;100486.47;5018593;28;19918;-73
2022/10/08 03:56:27;;;;;;;;;;;;;;;12.37;62.70;100496.75;5020149;28;19925;-71
2022/10/08 03:58:54;;;;;;;;;;;;;;;12.42;63.20;100493.63;5022029;28;19984;-74
2022/10/08 04:01:19;;;;;;;;;;;;;;;12.30;63.55;100490.38;5020675;28;19925;-73
2022/10/08 04:03:44;;;;;;;;;;;;;;;12.12;64.50;100487.75;5019075;28;19949;-71
2022/10/08 04:06:10;;;;;;;;;;;;;;;12.02;65.18;100491.50;5020186;28;19957;-71
2022/10/08 04:08:36;;;;;;;;;;;;;;;11.84;65.55;100488.84;5021139;28;20024;-73
2022/10/08 04:11:04;;;;;;;;;;;;;;;11.74;65.33;100485.41;5021924;28;19923;-71
2022/10/08 04:13:30;;;;;;;;;;;;;;;11.96;65.55;100482.31;5018924;28;19913;-70
2022/10/08 04:15:59;;;;;;;;;;;;;;;11.81;65.88;100481.19;5019551;28;20281;-73
2022/10/08 04:18:25;;;;;;;;;;;;;;;11.78;66.13;100476.19;5018803;28;19917;-71
2022/10/08 04:20:55;;;;;;;;;;;;;;;11.95;65.95;100477.16;5019951;28;19929;-73
2022/10/08 04:23:20;;;;;;;;;;;;;;;11.98;65.30;100476.84;5019158;28;19926;-73
2022/10/08 04:25:49;;;;;;;;;;;;;;;11.85;65.98;100476.41;5022377;28;19929;-73
2022/10/08 04:28:14;;;;;;;;;;;;;;;11.70;66.52;100476.06;5019474;28;19917;-73
2022/10/08 04:30:40;;;;;;;;;;;;;;;11.71;66.39;100473.28;5020150;28;19922;-73
2022/10/08 04:33:05;;;;;;;;;;;;;;;11.71;66.73;100475.94;5020298;28;19924;-73
2022/10/08 04:35:30;;;;;;;;;;;;;;;11.76;65.70;100483.44;5021651;28;19918;-71
2022/10/08 04:37:55;;;;;;;;;;;;;;;11.69;66.69;100479.72;5020025;28;20107;-73
2022/10/08 04:40:21;;;;;;;;;;;;;;;11.49;66.82;100468.41;5019853;28;19929;-71
2022/10/08 04:42:50;;;;;;;;;;;;;;;11.52;67.04;100474.25;5018413;28;20267;-71
2022/10/08 04:45:16;;;;;;;;;;;;;;;11.38;66.70;100492.47;5018827;28;20218;-71
2022/10/08 04:47:42;;;;;;;;;;;;;;;11.73;65.81;100481.06;5019293;28;19933;-73
2022/10/08 04:50:07;;;;;;;;;;;;;;;11.73;65.56;100486.38;5018593;28;19929;-71
2022/10/08 04:52:32;;;;;;;;;;;;;;;11.82;64.81;100489.00;5019047;28;20179;-71
2022/10/08 04:54:58;;;;;;;;;;;;;;;12.03;64.63;100494.00;5017914;28;19921;-73
2022/10/08 04:57:23;;;;;;;;;;;;;;;12.19;65.11;100484.50;5018675;28;19917;-73
2022/10/08 04:59:48;;;;;;;;;;;;;;;12.16;64.44;100477.66;5019045;28;19968;-74
2022/10/08 05:02:13;;;;;;;;;;;;;;;12.02;64.74;100487.00;5018624;28;20146;-71
2022/10/08 05:04:39;;;;;;;;;;;;;;;12.06;64.46;100490.19;5019172;28;19967;-74
2022/10/08 05:07:04;;;;;;;;;;;;;;;11.96;64.17;100487.63;5018558;28;19925;-70
2022/10/08 05:09:29;;;;;;;;;;;;;;;11.85;65.20;100479.06;5022060;28;20179;-74
2022/10/08 05:11:55;;;;;;;;;;;;;;;11.93;65.66;100481.78;5017728;28;19925;-70
2022/10/08 05:14:20;;;;;;;;;;;;;;;12.14;65.47;100482.28;5018241;28;19922;-70
2022/10/08 05:16:46;;;;;;;;;;;;;;;12.31;65.00;100484.09;5018912;28;19929;-73
2022/10/08 05:19:12;;;;;;;;;;;;;;;12.51;64.01;100487.41;5018114;28;19921;-71
2022/10/08 05:21:37;;;;;;;;;;;;;;;12.60;63.83;100489.13;5019660;28;20019;-73
2022/10/08 05:24:04;;;;;;;;;;;;;;;12.63;63.44;100498.59;5017398;28;20368;-71
2022/10/08 05:26:31;;;;;;;;;;;;;;;12.53;63.80;100484.59;5020640;28;20230;-73
2022/10/08 05:28:57;;;;;;;;;;;;;;;12.51;64.10;100497.19;5018952;28;19991;-71
2022/10/08 05:31:23;;;;;;;;;;;;;;;12.51;64.91;100500.69;5018206;28;19984;-74
2022/10/08 05:33:48;;;;;;;;;;;;;;;12.67;64.25;100497.28;5018825;28;20151;-74
2022/10/08 05:36:18;;;;;;;;;;;;;;;12.63;64.28;100498.59;5017824;28;19925;-74
2022/10/08 05:38:43;;;;;;;;;;;;;;;12.71;64.50;100504.78;5018042;28;19924;-71
2022/10/08 05:41:11;;;;;;;;;;;;;;;12.91;63.83;100501.91;5018684;28;20111;-72
2022/10/08 05:43:36;;;;;;;;;;;;;;;13.16;63.27;100502.84;5018248;28;19993;-74
2022/10/08 05:46:02;;;;;;;;;;;;;;;13.70;62.00;100518.38;5018609;28;19925;-71
2022/10/08 05:48:27;;;;;;;;;;;;;;;14.23;59.57;100514.41;5017871;28;19917;-71
2022/10/08 05:50:53;;;;;;;;;;;;;;;14.70;58.22;100524.44;5019376;28;19942;-74
2022/10/08 05:53:18;;;;;;;;;;;;;;;14.92;57.13;100517.53;5019294;28;19921;-69
2022/10/08 05:55:43;;;;;;;;;;;;;;;15.42;55.87;100524.34;5020457;28;19982;-71
2022/10/08 05:58:08;;;;;;;;;;;;;;;15.37;55.91;100516.03;5018531;28;20277;-71
2022/10/08 06:00:34;;;;;;;;;;;;;;;15.18;56.91;100526.13;5018770;28;19930;-75
2022/10/08 06:02:59;;;;;;;;;;;;;;;15.39;56.70;100522.03;5020142;28;19921;-74
2022/10/08 06:05:24;;;;;;;;;;;;;;;15.74;56.17;100520.72;5024386;28;19921;-71
2022/10/08 06:07:51;;;;;;;;;;;;;;;15.80;56.26;100523.50;5022828;28;19947;-71
2022/10/08 06:10:17;;;;;;;;;;;;;;;16.33;54.59;100521.78;5021324;28;19926;-71
2022/10/08 06:12:42;;;;;;;;;;;;;;;16.59;53.98;100516.03;5021943;28;19972;-74
2022/10/08 06:15:07;;;;;;;;;;;;;;;16.84;52.99;100513.97;5020777;28;19945;-71
2022/10/08 06:17:33;;;;;;;;;;;;;;;16.71;53.76;100521.81;5021624;28;20110;-72
2022/10/08 06:19:58;;;;;;;;;;;;;;;16.79;53.53;100521.72;5021178;28;20123;-74
2022/10/08 06:22:23;;;;;;;;;;;;;;;17.14;52.98;100528.19;5020823;28;19924;-71
2022/10/08 06:24:48;;;;;;;;;;;;;;;16.91;53.36;100521.09;5020725;28;19992;-71
2022/10/08 06:27:14;;;;;;;;;;;;;;;17.16;52.30;100527.00;5024893;28;20092;-71
2022/10/08 06:29:39;;;;;;;;;;;;;;;17.42;51.74;100521.13;5025257;28;19936;-74
2022/10/08 06:32:04;;;;;;;;;;;;;;;17.44;50.95;100518.28;5025205;28;20246;-74
2022/10/08 06:34:29;;;;;;;;;;;;;;;17.18;51.01;100516.94;5024999;28;19984;-71
2022/10/08 06:36:55;;;;;;;;;;;;;;;16.77;51.97;100521.91;5025567;28;20223;-74
2022/10/08 06:39:20;;;;;;;;;;;;;;;16.84;52.03;100517.50;5025062;28;19921;-74
2022/10/08 06:41:45;;;;;;;;;;;;;;;17.18;50.60;100513.41;5024609;28;19914;-74
2022/10/08 06:44:12;;;;;;;;;;;;;;;16.99;50.49;100522.84;5024694;28;19928;-74
2022/10/08 06:46:38;;;;;;;;;;;;;;;17.22;50.61;100520.06;5023845;28;19948;-71
2022/10/08 06:49:04;;;;;;;;;;;;;;;17.53;49.94;100520.66;5024294;28;19940;-71
2022/10/08 06:51:30;;;;;;;;;;;;;;;17.66;49.01;100514.66;5039120;28;19977;-74
2022/10/08 06:53:56;;;;;;;;;;;;;;;17.40;49.49;100507.09;5024337;28;20215;-71
2022/10/08 06:56:22;;;;;;;;;;;;;;;17.65;48.87;100510.28;5024434;28;20300;-71
2022/10/08 06:58:48;;;;;;;;;;;;;;;17.81;48.56;100512.78;5024560;28;20111;-74
2022/10/08 07:01:33;;;;;;;;;;;;;;;18.21;47.97;100513.16;5024781;28;19924;-74
2022/10/08 07:03:59;;;;;;;;;;;;;;;18.23;47.82;100513.78;5024201;28;19921;-71
2022/10/08 07:06:25;;;;;;;;;;;;;;;18.47;47.38;100518.75;5024831;28;19917;-71
2022/10/08 07:08:51;;;;;;;;;;;;;;;18.41;46.91;100519.50;5024266;28;19918;-72
2022/10/08 07:11:17;;;;;;;;;;;;;;;18.51;47.29;100524.53;5024160;28;20158;-74
2022/10/08 07:13:42;;;;;;;;;;;;;;;18.88;46.65;100527.94;5037980;28;19913;-71
2022/10/08 07:16:12;;;;;;;;;;;;;;;19.37;45.24;100515.19;5024459;28;20130;-74
2022/10/08 07:18:38;;;;;;;;;;;;;;;19.70;44.96;100519.88;5024185;28;19914;-71
2022/10/08 07:21:04;;;;;;;;;;;;;;;19.91;44.24;100514.38;5024443;28;19924;-75
2022/10/08 07:23:30;;;;;;;;;;;;;;;19.97;43.41;100512.72;5024038;28;19914;-71
2022/10/08 07:25:59;;;;;;;;;;;;;;;19.34;44.50;100504.84;5027787;28;19967;-75
2022/10/08 07:28:26;;;;;;;;;;;;;;;19.70;44.36;100499.22;5043827;28;19913;-75
2022/10/08 07:30:51;;;;;;;;;;;;;;;19.91;43.77;100500.13;5025172;28;19937;-75
2022/10/08 07:33:16;;;;;;;;;;;;;;;19.84;43.75;100489.34;5023804;28;19913;-75
2022/10/08 07:35:42;;;;;;;;;;;;;;;20.33;43.17;100491.66;5024118;28;19917;-74
2022/10/08 07:38:07;;;;;;;;;;;;;;;20.50;42.41;100488.56;5024009;28;19992;-71
2022/10/08 07:40:35;;;;;;;;;;;;;;;20.40;41.90;100491.69;5035553;28;19921;-74
2022/10/08 07:43:01;;;;;;;;;;;;;;;20.91;41.36;100488.31;5043240;28;20206;-71
2022/10/08 07:45:26;;;;;;;;;;;;;;;20.69;41.93;100485.03;5023931;28;19921;-71
2022/10/08 07:47:52;;;;;;;;;;;;;;;20.61;42.11;100479.88;5022338;28;19914;-74
2022/10/08 07:50:17;;;;;;;;;;;;;;;20.64;42.07;100477.59;5036725;28;19922;-75
2022/10/08 07:52:42;;;;;;;;;;;;;;;20.91;41.22;100483.75;5023897;28;19917;-74
2022/10/08 07:55:07;;;;;;;;;;;;;;;21.18;41.07;100481.81;5021277;28;19929;-75
2022/10/08 07:57:33;;;;;;;;;;;;;;;20.97;41.28;100485.59;5023098;28;19948;-71
2022/10/08 07:59:58;;;;;;;;;;;;;;;21.01;40.94;100480.63;5023621;28;20087;-74
2022/10/08 08:02:23;;;;;;;;;;;;;;;21.12;40.65;100476.44;5023599;28;19952;-71
2022/10/08 08:04:49;;;;;;;;;;;;;;;21.23;40.27;100482.03;5023417;28;19929;-71
2022/10/08 08:07:14;;;;;;;;;;;;;;;21.10;40.08;100473.13;5023464;28;19913;-72
2022/10/08 08:09:39;;;;;;;;;;;;;;;21.14;40.00;100477.06;5023427;28;19953;-74
2022/10/08 08:12:04;;;;;;;;;;;;;;;21.21;40.02;100473.31;5022552;28;19976;-72
2022/10/08 08:14:30;;;;;;;;;;;;;;;21.28;39.48;100468.75;5023239;28;19921;-75
2022/10/08 08:16:55;;;;;;;;;;;;;;;21.34;39.98;100472.44;5023673;28;19920;-73
2022/10/08 08:19:22;;;;;;;;;;;;;;;21.26;40.10;100470.00;5021986;28;19928;-72
2022/10/08 08:21:48;;;;;;;;;;;;;;;21.63;39.37;100465.66;5023414;28;20112;-75
2022/10/08 08:24:14;;;;;;;;;;;;;;;21.65;39.28;100463.56;5022612;28;19922;-73
2022/10/08 08:26:40;;;;;;;;;;;;;;;21.72;39.27;100458.13;5021140;28;19925;-75
2022/10/08 08:29:07;;;;;;;;;;;;;;;21.59;38.79;100453.66;5023009;28;20095;-75
2022/10/08 08:31:34;;;;;;;;;;;;;;;21.75;39.06;100450.44;5023231;28;19914;-75
2022/10/08 08:34:00;;;;;;;;;;;;;;;21.83;39.70;100446.66;5022880;28;19928;-75
2022/10/08 08:36:27;;;;;;;;;;;;;;;21.93;38.78;100449.72;5023110;28;19952;-74
2022/10/08 08:38:52;;;;;;;;;;;;;;;22.15;38.00;100442.94;5022865;28;20141;-75
2022/10/08 08:41:31;;;;;;;;;;;;;;;22.23;38.75;100445.34;5022861;28;20024;-75
2022/10/08 08:44:00;;;;;;;;;;;;;;;22.55;38.50;100437.97;5023037;28;19921;-74
2022/10/08 08:46:28;;;;;;;;;;;;;;;22.26;38.13;100435.97;5023026;28;19945;-73
2022/10/08 08:48:55;;;;;;;;;;;;;;;22.31;38.01;100441.53;5020625;28;20273;-72
2022/10/08 08:51:20;;;;;;;;;;;;;;;22.45;38.06;100439.53;5019060;28;19997;-72
2022/10/08 08:53:45;;;;;;;;;;;;;;;22.59;37.57;100430.25;5020962;28;19909;-74
2022/10/08 08:56:14;;;;;;;;;;;;;;;22.53;37.80;100434.69;5021456;28;19968;-72
2022/10/08 08:58:41;;;;;;;;;;;;;;;22.43;37.40;100425.44;5020027;28;19981;-72
2022/10/08 09:01:06;;;;;;;;;;;;;;;22.38;38.28;100422.59;5019413;28;20087;-69
2022/10/08 09:03:33;;;;;;;;;;;;;;;22.69;36.61;100417.06;5018662;28;19928;-72
2022/10/08 09:06:03;;;;;;;;;;;;;;;22.17;38.43;100423.81;5018828;28;19928;-70
2022/10/08 09:08:32;;;;;;;;;;;;;;;22.35;37.27;100415.75;5016101;28;19925;-70
2022/10/08 09:11:00;;;;;;;;;;;;;;;22.51;36.65;100412.50;5019382;28;20487;-72
2022/10/08 09:13:32;;;;;;;;;;;;;;;22.55;37.51;100405.59;5020323;28;19984;-70
2022/10/08 09:15:58;;;;;;;;;;;;;;;22.55;37.66;100396.66;5019102;28;19922;-74
2022/10/08 09:18:23;;;;;;;;;;;;;;;22.58;37.37;100399.75;5020293;28;19918;-70
2022/10/08 09:20:48;;;;;;;;;;;;;;;22.47;37.70;100396.97;5021504;28;20168;-69
2022/10/08 09:23:15;;;;;;;;;;;;;;;22.51;37.68;100387.38;5019809;28;19956;-72
2022/10/08 09:25:41;;;;;;;;;;;;;;;22.77;37.56;100386.25;5003874;28;19928;-72
2022/10/08 09:28:07;;;;;;;;;;;;;;;22.76;37.61;100385.41;5019169;28;19924;-71
2022/10/08 09:30:37;;;;;;;;;;;;;;;22.75;36.76;100375.66;5018753;28;20207;-71
2022/10/08 09:33:22;;;;;;;;;;;;;;;22.80;37.02;100369.63;5019378;28;19917;-69
2022/10/08 09:35:49;;;;;;;;;;;;;;;22.66;36.90;100366.22;5019430;28;19922;-69
2022/10/08 09:38:25;;;;;;;;;;;;;;;22.68;36.78;100360.59;5021152;28;19917;-71
2022/10/08 09:41:00;;;;;;;;;;;;;;;22.93;35.78;100359.50;5024747;28;20303;-71
2022/10/08 09:43:26;;;;;;;;;;;;;;;22.70;37.09;100353.94;5024927;28;19980;-69
2022/10/08 09:45:53;;;;;;;;;;;;;;;22.59;37.63;100352.81;5022468;28;19929;-71
2022/10/08 09:48:24;;;;;;;;;;;;;;;22.58;36.76;100345.75;5023041;28;20115;-71
2022/10/08 09:51:01;;;;;;;;;;;;;;;22.73;36.88;100341.84;5025128;28;19929;-74
2022/10/08 09:53:28;;;;;;;;;;;;;;;22.81;36.25;100339.69;5007201;28;19917;-74
2022/10/08 09:55:58;;;;;;;;;;;;;;;22.83;36.31;100336.75;5019964;28;19960;-72
2022/10/08 09:58:24;;;;;;;;;;;;;;;22.73;36.28;100336.44;5024225;28;19918;-69
2022/10/08 10:01:01;;;;;;;;;;;;;;;22.82;35.61;100335.13;5024580;28;20115;-71
2022/10/08 10:03:26;;;;;;;;;;;;;;;22.78;35.36;100326.63;5024542;28;19917;-70
2022/10/08 10:05:54;;;;;;;;;;;;;;;22.62;35.66;100328.06;5022339;28;19922;-71
2022/10/08 10:08:38;;;;;;;;;;;;;;;22.62;35.65;100317.28;5023169;28;19956;-71
2022/10/08 10:11:03;;;;;;;;;;;;;;;22.56;36.13;100322.75;5019313;28;19976;-74
2022/10/08 10:13:35;;;;;;;;;;;;;;;22.65;36.39;100309.75;5021970;28;20232;-71
2022/10/08 10:16:07;;;;;;;;;;;;;;;22.68;36.64;100307.44;5021438;28;19925;-69
2022/10/08 10:18:32;;;;;;;;;;;;;;;;;;5019163;28;19918;-71
2022/10/08 10:21:00;;;;;;;;;;;;;;;22.92;35.56;100297.63;5022629;28;20257;-69
2022/10/08 10:23:28;;;;;;;;;;;;;;;22.89;35.25;100293.50;5021343;28;19940;-71
2022/10/08 10:26:00;;;;;;;;;;;;;;;22.92;34.92;100295.75;5022764;28;19921;-74
2022/10/08 10:28:33;;;;;;;;;;;;;;;22.92;35.43;100287.66;5021695;28;19988;-74
2022/10/08 10:31:01;;;;;;;;;;;;;;;23.01;34.97;100276.50;5021346;28;19936;-73
2022/10/08 10:33:37;;;;;;;;;;;;;;;22.95;35.61;100280.13;5020914;28;19914;-71
2022/10/08 10:36:09;;;;;;;;;;;;;;;22.90;35.23;100268.16;5005550;28;20254;-74
2022/10/08 10:38:36;;;;;;;;;;;;;;;22.88;35.32;100274.81;5021422;28;19984;-71
2022/10/08 10:41:14;;;;;;;;;;;;;;;22.75;35.72;100264.97;5021905;28;19921;-74
2022/10/08 10:43:47;;;;;;;;;;;;;;;22.76;35.75;100263.09;5025782;28;20218;-71
2022/10/08 10:46:12;;;;;;;;;;;;;;;;;;5023422;28;19917;-73
2022/10/08 10:48:38;;;;;;;;;;;;;;;22.70;35.49;100253.22;5021501;28;20195;-72
2022/10/08 10:51:18;;;;;;;;;;;;;;;22.81;35.36;100256.00;5021918;28;19925;-69
2022/10/08 10:53:55;;;;;;;;;;;;;;;22.84;34.66;100247.44;5023717;28;20214;-72
2022/10/08 10:56:21;;;;;;;;;;;;;;;22.59;35.40;100250.25;5009070;28;19979;-71
2022/10/08 10:58:49;;;;;;;;;;;;;;;22.58;35.60;100243.19;5021102;28;19917;-71
2022/10/08 11:01:24;;;;;;;;;;;;;;;22.71;35.60;100233.28;5021925;28;19980;-71
2022/10/08 11:04:12;;;;;;;;;;;;;;;22.65;35.82;100226.09;5023740;28;19937;-71
2022/10/08 11:06:37;;;;;;;;;;;;;;;22.57;35.71;100219.97;5023135;28;19917;-74
2022/10/08 11:09:21;;;;;;;;;;;;;;;22.78;35.33;100218.63;5021593;28;19945;-74
2022/10/08 11:12:02;;;;;;;;;;;;;;;22.79;35.39;100231.06;5021548;28;19918;-71
2022/10/08 11:14:27;;;;;;;;;;;;;;;22.68;35.44;100229.16;5021153;28;19953;-74
2022/10/08 11:16:53;;;;;;;;;;;;;;;22.45;35.47;100227.19;5023913;28;19962;-71
2022/10/08 11:19:31;;;;;;;;;;;;;;;22.46;35.60;100217.22;5021056;28;20179;-74
2022/10/08 11:22:09;;;;;;;;;;;;;;;22.49;36.02;100214.06;5027118;28;19917;-72
2022/10/08 11:24:47;;;;;;;;;;;;;;;22.49;35.82;100209.50;5023502;28;20241;-74
2022/10/08 11:27:41;;;;;;;;;;;;;;;22.41;35.94;100206.28;5020219;28;19972;-71
2022/10/08 11:30:21;;;;;;;;;;;;;;;22.50;36.09;100202.22;5013589;28;19929;-71
2022/10/08 11:32:51;;;;;;;;;;;;;;;22.53;35.44;100193.66;5022829;28;19968;-71
2022/10/08 11:35:24;;;;;;;;;;;;;;;22.44;36.15;100187.75;5022090;28;19929;-72
2022/10/08 11:38:13;;;;;;;;;;;;;;;22.27;36.46;100173.25;5020942;28;19988;-74
2022/10/08 11:40:50;;;;;;;;;;;;;;;22.50;35.74;100175.22;5020732;28;19930;-71
2022/10/08 11:43:28;;;;;;;;;;;;;;;22.79;35.30;100165.44;5021148;28;19932;-71
2022/10/08 11:46:11;;;;;;;;;;;;;;;22.68;35.25;100166.25;5022588;28;20044;-74
2022/10/08 11:48:36;;;;;;;;;;;;;;;22.31;35.53;100136.69;5021492;28;19924;-74
2022/10/08 11:51:17;;;;;;;;;;;;;;;22.36;36.32;100158.41;5023787;28;19944;-71
2022/10/08 11:53:55;;;;;;;;;;;;;;;22.57;36.30;100151.66;5022511;28;19927;-74
2022/10/08 11:56:20;;;;;;;;;;;;;;;22.47;36.34;100154.94;5021909;28;19925;-71
2022/10/08 11:58:51;;;;;;;;;;;;;;;22.39;36.09;100149.84;5023164;28;19913;-74
2022/10/08 12:01:16;;;;;;;;;;;;;;;22.35;37.10;100145.97;5020425;28;19925;-71
2022/10/08 12:03:42;;;;;;;;;;;;;;;22.52;36.00;100146.97;5023658;28;19960;-74
2022/10/08 12:06:16;;;;;;;;;;;;;;;22.54;35.67;100150.25;5021396;28;19913;-71
2022/10/08 12:08:51;;;;;;;;;;;;;;;22.50;35.50;100137.44;5019990;28;19917;-74
2022/10/08 12:11:34;;;;;;;;;;;;;;;22.25;36.00;100135.72;5020554;28;19918;-73
2022/10/08 12:14:09;;;;;;;;;;;;;;;22.46;35.80;100141.66;5034179;28;19921;-71
2022/10/08 12:16:46;;;;;;;;;;;;;;;22.57;35.75;100130.06;5022642;28;19921;-71
2022/10/08 12:19:30;;;;;;;;;;;;;;;22.68;35.73;100128.47;5020859;28;19921;-74
2022/10/08 12:21:56;;;;;;;;;;;;;;;22.56;35.35;100126.56;5020928;28;20107;-74
2022/10/08 12:24:37;;;;;;;;;;;;;;;22.43;35.91;100124.06;5021432;28;20206;-74
2022/10/08 12:27:20;;;;;;;;;;;;;;;22.34;36.66;100122.72;5019741;28;20218;-72
2022/10/08 12:29:54;;;;;;;;;;;;;;;22.56;35.43;100123.84;5019141;28;19925;-71
2022/10/08 12:32:26;;;;;;;;;;;;;;;22.43;36.26;100115.97;5019114;28;20478;-69
2022/10/08 12:34:51;;;;;;;;;;;;;;;22.27;36.12;100117.44;5019930;28;19932;-69
2022/10/08 12:37:22;;;;;;;;;;;;;;;22.48;35.40;100108.00;5019240;28;20194;-69
2022/10/08 12:39:48;;;;;;;;;;;;;;;22.53;35.32;100110.00;5019547;28;20003;-71
2022/10/08 12:42:17;;;;;;;;;;;;;;;22.64;35.14;100098.41;5019551;28;19929;-74
2022/10/08 12:45:01;;;;;;;;;;;;;;;22.88;35.05;100094.72;5019104;28;19918;-71
2022/10/08 12:47:29;;;;;;;;;;;;;;;22.77;34.65;100100.88;5018510;28;19960;-71